sensor_id;sensor_type;location;lat;lon;timestamp;P1;durP1;ratioP1;P2;durP2;ratioP2
15831;SDS011;8016;49.928;9.372;2024-02-26T00:00:03;4.70;;;3.37;;
15831;SDS011;8016;49.928;9.372;2024-02-26T00:02:30;4.23;;;2.57;;
15831;SDS011;8016;49.928;9.372;2024-02-26T00:04:58;4.60;;;2.63;;
15831;SDS011;8016;49.928;9.372;2024-02-26T00:07:24;4.77;;;2.40;;
15831;SDS011;8016;49.928;9.372;2024-02-26T00:09:50;4.43;;;2.73;;
15831;SDS011;8016;49.928;9.372;2024-02-26T00:12:16;3.80;;;2.73;;
15831;SDS011;8016;49.928;9.372;2024-02-26T00:14:42;20.57;;;9.60;;
15831;SDS011;8016;49.928;9.372;2024-02-26T00:17:10;3.10;;;2.80;;
15831;SDS011;8016;49.928;9.372;2024-02-26T00:19:36;3.30;;;2.47;;
15831;SDS011;8016;49.928;9.372;2024-02-26T00:22:01;4.10;;;2.70;;
15831;SDS011;8016;49.928;9.372;2024-02-26T00:24:27;5.03;;;2.30;;
15831;SDS011;8016;49.928;9.372;2024-02-26T00:26:53;2.93;;;2.20;;
15831;SDS011;8016;49.928;9.372;2024-02-26T00:29:20;2.60;;;2.00;;
15831;SDS011;8016;49.928;9.372;2024-02-26T00:31:46;3.40;;;2.30;;
15831;SDS011;8016;49.928;9.372;2024-02-26T00:34:12;2.93;;;2.20;;
15831;SDS011;8016;49.928;9.372;2024-02-26T00:36:38;2.53;;;2.33;;
15831;SDS011;8016;49.928;9.372;2024-02-26T00:39:04;3.87;;;3.07;;
15831;SDS011;8016;49.928;9.372;2024-02-26T00:41:30;3.37;;;2.60;;
15831;SDS011;8016;49.928;9.372;2024-02-26T00:43:56;4.40;;;2.50;;
15831;SDS011;8016;49.928;9.372;2024-02-26T00:46:22;4.03;;;2.60;;
15831;SDS011;8016;49.928;9.372;2024-02-26T00:48:48;3.17;;;2.88;;
15831;SDS011;8016;49.928;9.372;2024-02-26T00:51:14;2.60;;;2.40;;
15831;SDS011;8016;49.928;9.372;2024-02-26T00:53:40;2.60;;;2.40;;
15831;SDS011;8016;49.928;9.372;2024-02-26T00:56:06;5.20;;;2.70;;
15831;SDS011;8016;49.928;9.372;2024-02-26T00:58:32;3.40;;;2.37;;
15831;SDS011;8016;49.928;9.372;2024-02-26T01:00:58;4.00;;;2.80;;
15831;SDS011;8016;49.928;9.372;2024-02-26T01:03:24;2.47;;;2.10;;
15831;SDS011;8016;49.928;9.372;2024-02-26T01:05:50;3.00;;;2.70;;
15831;SDS011;8016;49.928;9.372;2024-02-26T01:08:16;3.07;;;2.77;;
15831;SDS011;8016;49.928;9.372;2024-02-26T01:10:42;2.90;;;2.40;;
15831;SDS011;8016;49.928;9.372;2024-02-26T01:13:08;3.90;;;2.50;;
15831;SDS011;8016;49.928;9.372;2024-02-26T01:15:34;5.20;;;3.00;;
15831;SDS011;8016;49.928;9.372;2024-02-26T01:18:00;3.40;;;2.60;;
15831;SDS011;8016;49.928;9.372;2024-02-26T01:20:26;4.13;;;2.83;;
15831;SDS011;8016;49.928;9.372;2024-02-26T01:22:52;3.70;;;2.40;;
15831;SDS011;8016;49.928;9.372;2024-02-26T01:25:18;2.70;;;2.50;;
15831;SDS011;8016;49.928;9.372;2024-02-26T01:27:44;3.10;;;2.40;;
15831;SDS011;8016;49.928;9.372;2024-02-26T01:30:10;3.23;;;2.93;;
15831;SDS011;8016;49.928;9.372;2024-02-26T01:32:36;3.97;;;2.87;;
15831;SDS011;8016;49.928;9.372;2024-02-26T01:35:03;4.27;;;2.70;;
15831;SDS011;8016;49.928;9.372;2024-02-26T01:37:30;3.40;;;2.60;;
15831;SDS011;8016;49.928;9.372;2024-02-26T01:39:56;3.00;;;2.40;;
15831;SDS011;8016;49.928;9.372;2024-02-26T01:42:22;3.47;;;3.00;;
15831;SDS011;8016;49.928;9.372;2024-02-26T01:44:48;5.47;;;2.70;;
15831;SDS011;8016;49.928;9.372;2024-02-26T01:47:14;3.13;;;2.63;;
15831;SDS011;8016;49.928;9.372;2024-02-26T01:49:40;3.33;;;2.50;;
15831;SDS011;8016;49.928;9.372;2024-02-26T01:52:06;2.60;;;2.40;;
15831;SDS011;8016;49.928;9.372;2024-02-26T01:54:34;3.93;;;3.17;;
15831;SDS011;8016;49.928;9.372;2024-02-26T01:57:00;5.60;;;3.00;;
15831;SDS011;8016;49.928;9.372;2024-02-26T01:59:27;3.07;;;2.57;;
15831;SDS011;8016;49.928;9.372;2024-02-26T02:01:54;3.30;;;2.67;;
15831;SDS011;8016;49.928;9.372;2024-02-26T02:04:20;4.20;;;2.70;;
15831;SDS011;8016;49.928;9.372;2024-02-26T02:06:47;3.07;;;2.70;;
15831;SDS011;8016;49.928;9.372;2024-02-26T02:09:13;2.57;;;2.37;;
15831;SDS011;8016;49.928;9.372;2024-02-26T02:11:39;3.90;;;2.77;;
15831;SDS011;8016;49.928;9.372;2024-02-26T02:14:05;3.97;;;3.30;;
15831;SDS011;8016;49.928;9.372;2024-02-26T02:16:31;3.23;;;2.60;;
15831;SDS011;8016;49.928;9.372;2024-02-26T02:18:58;3.30;;;2.90;;
15831;SDS011;8016;49.928;9.372;2024-02-26T02:21:24;4.70;;;2.60;;
15831;SDS011;8016;49.928;9.372;2024-02-26T02:23:50;3.67;;;2.50;;
15831;SDS011;8016;49.928;9.372;2024-02-26T02:26:16;3.50;;;3.07;;
15831;SDS011;8016;49.928;9.372;2024-02-26T02:28:42;2.53;;;2.33;;
15831;SDS011;8016;49.928;9.372;2024-02-26T02:31:08;3.87;;;2.73;;
15831;SDS011;8016;49.928;9.372;2024-02-26T02:33:34;4.10;;;2.67;;
15831;SDS011;8016;49.928;9.372;2024-02-26T02:36:00;3.27;;;2.57;;
15831;SDS011;8016;49.928;9.372;2024-02-26T02:38:26;3.20;;;2.77;;
15831;SDS011;8016;49.928;9.372;2024-02-26T02:40:54;3.77;;;2.90;;
15831;SDS011;8016;49.928;9.372;2024-02-26T02:43:20;3.37;;;2.67;;
15831;SDS011;8016;49.928;9.372;2024-02-26T02:45:46;3.13;;;2.63;;
15831;SDS011;8016;49.928;9.372;2024-02-26T02:48:12;3.33;;;2.73;;
15831;SDS011;8016;49.928;9.372;2024-02-26T02:50:38;4.03;;;2.70;;
15831;SDS011;8016;49.928;9.372;2024-02-26T02:53:04;3.80;;;2.90;;
15831;SDS011;8016;49.928;9.372;2024-02-26T02:55:30;3.87;;;2.90;;
15831;SDS011;8016;49.928;9.372;2024-02-26T02:57:56;4.00;;;2.80;;
15831;SDS011;8016;49.928;9.372;2024-02-26T03:00:22;3.90;;;3.10;;
15831;SDS011;8016;49.928;9.372;2024-02-26T03:02:49;4.20;;;2.63;;
15831;SDS011;8016;49.928;9.372;2024-02-26T03:05:15;3.23;;;2.93;;
15831;SDS011;8016;49.928;9.372;2024-02-26T03:07:41;4.03;;;3.20;;
15831;SDS011;8016;49.928;9.372;2024-02-26T03:10:07;4.03;;;3.00;;
15831;SDS011;8016;49.928;9.372;2024-02-26T03:12:33;3.17;;;2.60;;
15831;SDS011;8016;49.928;9.372;2024-02-26T03:15:00;3.33;;;2.57;;
15831;SDS011;8016;49.928;9.372;2024-02-26T03:17:29;3.13;;;2.53;;
15831;SDS011;8016;49.928;9.372;2024-02-26T03:19:55;3.03;;;2.40;;
15831;SDS011;8016;49.928;9.372;2024-02-26T03:22:21;4.33;;;2.37;;
15831;SDS011;8016;49.928;9.372;2024-02-26T03:24:47;2.67;;;2.37;;
15831;SDS011;8016;49.928;9.372;2024-02-26T03:27:13;3.43;;;2.53;;
15831;SDS011;8016;49.928;9.372;2024-02-26T03:29:39;3.43;;;2.73;;
15831;SDS011;8016;49.928;9.372;2024-02-26T03:32:05;2.77;;;2.40;;
15831;SDS011;8016;49.928;9.372;2024-02-26T03:34:32;3.00;;;2.43;;
15831;SDS011;8016;49.928;9.372;2024-02-26T03:37:01;3.17;;;2.10;;
15831;SDS011;8016;49.928;9.372;2024-02-26T03:39:27;2.57;;;2.27;;
15831;SDS011;8016;49.928;9.372;2024-02-26T03:41:53;5.00;;;2.20;;
15831;SDS011;8016;49.928;9.372;2024-02-26T03:44:19;2.90;;;2.30;;
15831;SDS011;8016;49.928;9.372;2024-02-26T03:46:45;3.70;;;2.73;;
15831;SDS011;8016;49.928;9.372;2024-02-26T03:49:11;3.70;;;2.67;;
15831;SDS011;8016;49.928;9.372;2024-02-26T03:51:38;2.93;;;2.47;;
15831;SDS011;8016;49.928;9.372;2024-02-26T03:54:04;2.60;;;2.03;;
15831;SDS011;8016;49.928;9.372;2024-02-26T03:56:30;2.37;;;2.03;;
15831;SDS011;8016;49.928;9.372;2024-02-26T03:58:56;2.93;;;2.30;;
15831;SDS011;8016;49.928;9.372;2024-02-26T04:01:22;2.20;;;1.97;;
15831;SDS011;8016;49.928;9.372;2024-02-26T04:03:48;2.80;;;2.50;;
15831;SDS011;8016;49.928;9.372;2024-02-26T04:06:15;3.57;;;2.40;;
15831;SDS011;8016;49.928;9.372;2024-02-26T04:08:44;3.30;;;2.40;;
15831;SDS011;8016;49.928;9.372;2024-02-26T04:11:10;3.40;;;2.77;;
15831;SDS011;8016;49.928;9.372;2024-02-26T04:13:36;2.40;;;2.10;;
15831;SDS011;8016;49.928;9.372;2024-02-26T04:16:03;2.80;;;2.50;;
15831;SDS011;8016;49.928;9.372;2024-02-26T04:18:30;2.60;;;2.23;;
15831;SDS011;8016;49.928;9.372;2024-02-26T04:20:56;2.70;;;1.97;;
15831;SDS011;8016;49.928;9.372;2024-02-26T04:23:22;4.43;;;2.37;;
15831;SDS011;8016;49.928;9.372;2024-02-26T04:25:48;2.43;;;1.80;;
15831;SDS011;8016;49.928;9.372;2024-02-26T04:28:14;3.67;;;2.23;;
15831;SDS011;8016;49.928;9.372;2024-02-26T04:30:41;8.37;;;6.80;;
15831;SDS011;8016;49.928;9.372;2024-02-26T04:33:07;5.83;;;4.67;;
15831;SDS011;8016;49.928;9.372;2024-02-26T04:35:33;7.23;;;6.53;;
15831;SDS011;8016;49.928;9.372;2024-02-26T04:38:00;3.30;;;2.80;;
15831;SDS011;8016;49.928;9.372;2024-02-26T04:40:26;6.97;;;4.17;;
15831;SDS011;8016;49.928;9.372;2024-02-26T04:42:52;3.47;;;1.90;;
15831;SDS011;8016;49.928;9.372;2024-02-26T04:45:18;6.13;;;3.10;;
15831;SDS011;8016;49.928;9.372;2024-02-26T04:47:44;2.53;;;2.17;;
15831;SDS011;8016;49.928;9.372;2024-02-26T04:50:10;2.80;;;2.47;;
15831;SDS011;8016;49.928;9.372;2024-02-26T04:52:36;3.63;;;2.00;;
15831;SDS011;8016;49.928;9.372;2024-02-26T04:55:02;3.30;;;3.00;;
15831;SDS011;8016;49.928;9.372;2024-02-26T04:57:28;2.50;;;2.17;;
15831;SDS011;8016;49.928;9.372;2024-02-26T04:59:54;4.20;;;2.43;;
15831;SDS011;8016;49.928;9.372;2024-02-26T05:02:20;2.73;;;2.17;;
15831;SDS011;8016;49.928;9.372;2024-02-26T05:04:46;7.23;;;6.57;;
15831;SDS011;8016;49.928;9.372;2024-02-26T05:07:12;2.90;;;1.97;;
15831;SDS011;8016;49.928;9.372;2024-02-26T05:09:39;2.33;;;2.10;;
15831;SDS011;8016;49.928;9.372;2024-02-26T05:12:07;2.63;;;2.37;;
15831;SDS011;8016;49.928;9.372;2024-02-26T05:14:33;2.73;;;2.13;;
15831;SDS011;8016;49.928;9.372;2024-02-26T05:16:58;4.13;;;2.40;;
15831;SDS011;8016;49.928;9.372;2024-02-26T05:19:24;3.07;;;2.20;;
15831;SDS011;8016;49.928;9.372;2024-02-26T05:21:50;2.73;;;2.47;;
15831;SDS011;8016;49.928;9.372;2024-02-26T05:24:16;2.77;;;2.30;;
15831;SDS011;8016;49.928;9.372;2024-02-26T05:26:43;4.20;;;2.70;;
15831;SDS011;8016;49.928;9.372;2024-02-26T05:29:09;2.70;;;2.50;;
15831;SDS011;8016;49.928;9.372;2024-02-26T05:31:35;5.30;;;2.87;;
15831;SDS011;8016;49.928;9.372;2024-02-26T05:34:01;2.60;;;2.40;;
15831;SDS011;8016;49.928;9.372;2024-02-26T05:36:27;3.40;;;2.57;;
15831;SDS011;8016;49.928;9.372;2024-02-26T05:38:58;2.80;;;2.20;;
15831;SDS011;8016;49.928;9.372;2024-02-26T05:41:24;2.87;;;2.27;;
15831;SDS011;8016;49.928;9.372;2024-02-26T05:43:51;4.27;;;2.13;;
15831;SDS011;8016;49.928;9.372;2024-02-26T05:46:18;2.90;;;2.50;;
15831;SDS011;8016;49.928;9.372;2024-02-26T05:48:44;3.87;;;2.60;;
15831;SDS011;8016;49.928;9.372;2024-02-26T05:51:10;4.00;;;3.10;;
15831;SDS011;8016;49.928;9.372;2024-02-26T05:53:36;3.23;;;2.57;;
15831;SDS011;8016;49.928;9.372;2024-02-26T05:56:02;5.13;;;3.23;;
15831;SDS011;8016;49.928;9.372;2024-02-26T05:58:28;3.73;;;2.83;;
15831;SDS011;8016;49.928;9.372;2024-02-26T06:00:54;5.03;;;3.27;;
15831;SDS011;8016;49.928;9.372;2024-02-26T06:03:20;11.30;;;7.50;;
15831;SDS011;8016;49.928;9.372;2024-02-26T06:05:46;14.63;;;10.77;;
15831;SDS011;8016;49.928;9.372;2024-02-26T06:08:12;9.77;;;7.13;;
15831;SDS011;8016;49.928;9.372;2024-02-26T06:10:39;7.70;;;5.77;;
15831;SDS011;8016;49.928;9.372;2024-02-26T06:13:05;4.37;;;3.13;;
15831;SDS011;8016;49.928;9.372;2024-02-26T06:15:31;8.87;;;7.50;;
15831;SDS011;8016;49.928;9.372;2024-02-26T06:17:57;4.47;;;3.30;;
15831;SDS011;8016;49.928;9.372;2024-02-26T06:20:23;4.43;;;4.03;;
15831;SDS011;8016;49.928;9.372;2024-02-26T06:22:49;5.07;;;3.33;;
15831;SDS011;8016;49.928;9.372;2024-02-26T06:25:15;7.53;;;5.17;;
15831;SDS011;8016;49.928;9.372;2024-02-26T06:27:41;5.43;;;3.08;;
15831;SDS011;8016;49.928;9.372;2024-02-26T06:30:07;5.43;;;4.63;;
15831;SDS011;8016;49.928;9.372;2024-02-26T06:32:35;4.80;;;3.80;;
15831;SDS011;8016;49.928;9.372;2024-02-26T06:35:01;3.60;;;2.83;;
15831;SDS011;8016;49.928;9.372;2024-02-26T06:37:31;4.30;;;3.03;;
15831;SDS011;8016;49.928;9.372;2024-02-26T06:39:58;3.73;;;3.10;;
15831;SDS011;8016;49.928;9.372;2024-02-26T06:42:24;4.50;;;3.27;;
15831;SDS011;8016;49.928;9.372;2024-02-26T06:44:50;5.53;;;3.47;;
15831;SDS011;8016;49.928;9.372;2024-02-26T06:47:16;14.70;;;9.73;;
15831;SDS011;8016;49.928;9.372;2024-02-26T06:49:42;5.20;;;3.60;;
15831;SDS011;8016;49.928;9.372;2024-02-26T06:52:09;5.73;;;3.53;;
15831;SDS011;8016;49.928;9.372;2024-02-26T06:54:35;4.63;;;3.60;;
15831;SDS011;8016;49.928;9.372;2024-02-26T06:57:00;6.32;;;4.75;;
15831;SDS011;8016;49.928;9.372;2024-02-26T06:59:26;5.07;;;4.43;;
15831;SDS011;8016;49.928;9.372;2024-02-26T07:01:53;4.83;;;3.10;;
15831;SDS011;8016;49.928;9.372;2024-02-26T07:04:19;6.03;;;3.63;;
15831;SDS011;8016;49.928;9.372;2024-02-26T07:06:45;9.73;;;8.67;;
15831;SDS011;8016;49.928;9.372;2024-02-26T07:09:12;6.30;;;5.47;;
15831;SDS011;8016;49.928;9.372;2024-02-26T07:11:38;4.67;;;3.63;;
15831;SDS011;8016;49.928;9.372;2024-02-26T07:14:08;6.10;;;4.63;;
15831;SDS011;8016;49.928;9.372;2024-02-26T07:16:34;4.70;;;3.90;;
15831;SDS011;8016;49.928;9.372;2024-02-26T07:19:00;4.90;;;3.80;;
15831;SDS011;8016;49.928;9.372;2024-02-26T07:21:27;6.90;;;4.27;;
15831;SDS011;8016;49.928;9.372;2024-02-26T07:23:53;4.43;;;3.77;;
15831;SDS011;8016;49.928;9.372;2024-02-26T07:26:19;6.50;;;4.30;;
15831;SDS011;8016;49.928;9.372;2024-02-26T07:28:45;3.67;;;3.37;;
15831;SDS011;8016;49.928;9.372;2024-02-26T07:31:11;4.40;;;3.80;;
15831;SDS011;8016;49.928;9.372;2024-02-26T07:33:37;6.97;;;5.20;;
15831;SDS011;8016;49.928;9.372;2024-02-26T07:36:03;5.43;;;3.90;;
15831;SDS011;8016;49.928;9.372;2024-02-26T07:38:29;6.20;;;4.13;;
15831;SDS011;8016;49.928;9.372;2024-02-26T07:40:55;7.90;;;4.80;;
15831;SDS011;8016;49.928;9.372;2024-02-26T07:43:22;7.20;;;5.70;;
15831;SDS011;8016;49.928;9.372;2024-02-26T07:45:48;6.57;;;4.30;;
15831;SDS011;8016;49.928;9.372;2024-02-26T07:48:14;5.30;;;4.60;;
15831;SDS011;8016;49.928;9.372;2024-02-26T07:50:40;7.30;;;5.10;;
15831;SDS011;8016;49.928;9.372;2024-02-26T07:53:06;6.77;;;4.80;;
15831;SDS011;8016;49.928;9.372;2024-02-26T07:55:32;6.63;;;5.17;;
15831;SDS011;8016;49.928;9.372;2024-02-26T07:57:58;7.03;;;5.00;;
15831;SDS011;8016;49.928;9.372;2024-02-26T08:00:25;5.53;;;4.23;;
15831;SDS011;8016;49.928;9.372;2024-02-26T08:02:51;6.50;;;4.87;;
15831;SDS011;8016;49.928;9.372;2024-02-26T08:05:17;6.33;;;4.93;;
15831;SDS011;8016;49.928;9.372;2024-02-26T08:07:43;7.13;;;5.40;;
15831;SDS011;8016;49.928;9.372;2024-02-26T08:10:09;4.93;;;4.30;;
15831;SDS011;8016;49.928;9.372;2024-02-26T08:12:36;6.77;;;6.03;;
15831;SDS011;8016;49.928;9.372;2024-02-26T08:15:02;6.70;;;5.50;;
15831;SDS011;8016;49.928;9.372;2024-02-26T08:17:28;6.37;;;4.47;;
15831;SDS011;8016;49.928;9.372;2024-02-26T08:19:54;6.67;;;5.37;;
15831;SDS011;8016;49.928;9.372;2024-02-26T08:22:21;8.53;;;6.53;;
15831;SDS011;8016;49.928;9.372;2024-02-26T08:24:47;10.23;;;7.93;;
15831;SDS011;8016;49.928;9.372;2024-02-26T08:27:13;7.80;;;6.03;;
15831;SDS011;8016;49.928;9.372;2024-02-26T08:29:39;10.43;;;7.13;;
15831;SDS011;8016;49.928;9.372;2024-02-26T08:32:05;7.27;;;5.83;;
15831;SDS011;8016;49.928;9.372;2024-02-26T08:34:32;7.37;;;5.37;;
15831;SDS011;8016;49.928;9.372;2024-02-26T08:36:58;7.73;;;5.37;;
15831;SDS011;8016;49.928;9.372;2024-02-26T08:39:24;8.20;;;4.83;;
15831;SDS011;8016;49.928;9.372;2024-02-26T08:41:50;9.10;;;5.77;;
15831;SDS011;8016;49.928;9.372;2024-02-26T08:44:16;8.47;;;5.60;;
15831;SDS011;8016;49.928;9.372;2024-02-26T08:46:43;8.30;;;5.70;;
15831;SDS011;8016;49.928;9.372;2024-02-26T08:49:10;7.73;;;6.30;;
15831;SDS011;8016;49.928;9.372;2024-02-26T08:51:41;14.23;;;12.90;;
15831;SDS011;8016;49.928;9.372;2024-02-26T08:54:07;6.87;;;6.23;;
15831;SDS011;8016;49.928;9.372;2024-02-26T08:56:33;7.93;;;5.10;;
15831;SDS011;8016;49.928;9.372;2024-02-26T08:58:59;8.17;;;5.60;;
15831;SDS011;8016;49.928;9.372;2024-02-26T09:01:28;7.73;;;5.00;;
15831;SDS011;8016;49.928;9.372;2024-02-26T09:03:54;8.33;;;6.13;;
15831;SDS011;8016;49.928;9.372;2024-02-26T09:06:21;9.57;;;5.70;;
15831;SDS011;8016;49.928;9.372;2024-02-26T09:08:47;7.60;;;5.30;;
15831;SDS011;8016;49.928;9.372;2024-02-26T09:11:13;6.53;;;5.37;;
15831;SDS011;8016;49.928;9.372;2024-02-26T09:13:39;7.40;;;5.83;;
15831;SDS011;8016;49.928;9.372;2024-02-26T09:16:05;7.03;;;5.73;;
15831;SDS011;8016;49.928;9.372;2024-02-26T09:18:31;7.80;;;5.47;;
15831;SDS011;8016;49.928;9.372;2024-02-26T09:20:57;5.83;;;5.23;;
15831;SDS011;8016;49.928;9.372;2024-02-26T09:23:23;9.43;;;6.00;;
15831;SDS011;8016;49.928;9.372;2024-02-26T09:25:49;7.93;;;5.40;;
15831;SDS011;8016;49.928;9.372;2024-02-26T09:28:15;6.97;;;5.17;;
15831;SDS011;8016;49.928;9.372;2024-02-26T09:30:42;7.73;;;6.37;;
15831;SDS011;8016;49.928;9.372;2024-02-26T09:33:08;8.77;;;5.17;;
15831;SDS011;8016;49.928;9.372;2024-02-26T09:35:34;6.60;;;5.63;;
15831;SDS011;8016;49.928;9.372;2024-02-26T09:38:00;10.00;;;5.80;;
15831;SDS011;8016;49.928;9.372;2024-02-26T09:40:26;7.07;;;5.77;;
15831;SDS011;8016;49.928;9.372;2024-02-26T09:42:53;8.00;;;6.00;;
15831;SDS011;8016;49.928;9.372;2024-02-26T09:45:21;6.63;;;5.70;;
15831;SDS011;8016;49.928;9.372;2024-02-26T09:47:48;9.20;;;5.40;;
15831;SDS011;8016;49.928;9.372;2024-02-26T09:50:15;9.37;;;5.93;;
15831;SDS011;8016;49.928;9.372;2024-02-26T09:52:42;6.90;;;5.73;;
15831;SDS011;8016;49.928;9.372;2024-02-26T09:55:09;9.07;;;6.00;;
15831;SDS011;8016;49.928;9.372;2024-02-26T09:57:36;8.20;;;6.43;;
15831;SDS011;8016;49.928;9.372;2024-02-26T10:00:03;8.43;;;7.00;;
15831;SDS011;8016;49.928;9.372;2024-02-26T10:02:31;8.73;;;6.43;;
15831;SDS011;8016;49.928;9.372;2024-02-26T10:04:59;12.80;;;9.20;;
15831;SDS011;8016;49.928;9.372;2024-02-26T10:07:26;7.37;;;6.23;;
15831;SDS011;8016;49.928;9.372;2024-02-26T10:09:55;8.60;;;6.70;;
15831;SDS011;8016;49.928;9.372;2024-02-26T10:12:21;10.40;;;9.30;;
15831;SDS011;8016;49.928;9.372;2024-02-26T10:14:47;9.23;;;6.33;;
15831;SDS011;8016;49.928;9.372;2024-02-26T10:17:13;7.03;;;6.27;;
15831;SDS011;8016;49.928;9.372;2024-02-26T10:19:39;7.83;;;6.03;;
15831;SDS011;8016;49.928;9.372;2024-02-26T10:22:05;8.77;;;6.27;;
15831;SDS011;8016;49.928;9.372;2024-02-26T10:24:32;10.40;;;6.30;;
15831;SDS011;8016;49.928;9.372;2024-02-26T10:26:59;7.63;;;6.43;;
15831;SDS011;8016;49.928;9.372;2024-02-26T10:29:25;9.13;;;6.53;;
15831;SDS011;8016;49.928;9.372;2024-02-26T10:31:51;8.23;;;6.53;;
15831;SDS011;8016;49.928;9.372;2024-02-26T10:34:18;8.97;;;6.67;;
15831;SDS011;8016;49.928;9.372;2024-02-26T10:36:44;8.50;;;6.70;;
15831;SDS011;8016;49.928;9.372;2024-02-26T10:39:13;7.37;;;6.30;;
15831;SDS011;8016;49.928;9.372;2024-02-26T10:41:43;10.20;;;7.00;;
15831;SDS011;8016;49.928;9.372;2024-02-26T10:44:10;6.47;;;5.57;;
15831;SDS011;8016;49.928;9.372;2024-02-26T10:46:37;8.00;;;6.27;;
15831;SDS011;8016;49.928;9.372;2024-02-26T10:49:03;9.37;;;5.93;;
15831;SDS011;8016;49.928;9.372;2024-02-26T10:51:31;7.63;;;5.60;;
15831;SDS011;8016;49.928;9.372;2024-02-26T10:53:58;7.30;;;5.97;;
15831;SDS011;8016;49.928;9.372;2024-02-26T10:56:29;7.13;;;5.80;;
15831;SDS011;8016;49.928;9.372;2024-02-26T10:58:56;8.27;;;5.70;;
15831;SDS011;8016;49.928;9.372;2024-02-26T11:01:23;6.70;;;4.97;;
15831;SDS011;8016;49.928;9.372;2024-02-26T11:03:51;7.77;;;5.70;;
15831;SDS011;8016;49.928;9.372;2024-02-26T11:06:17;8.17;;;6.17;;
15831;SDS011;8016;49.928;9.372;2024-02-26T11:08:47;7.03;;;6.00;;
15831;SDS011;8016;49.928;9.372;2024-02-26T11:11:13;6.53;;;5.37;;
15831;SDS011;8016;49.928;9.372;2024-02-26T11:13:40;6.17;;;5.40;;
15831;SDS011;8016;49.928;9.372;2024-02-26T11:16:10;7.50;;;5.17;;
15831;SDS011;8016;49.928;9.372;2024-02-26T11:18:36;10.90;;;5.20;;
15831;SDS011;8016;49.928;9.372;2024-02-26T11:21:02;7.97;;;5.63;;
15831;SDS011;8016;49.928;9.372;2024-02-26T11:23:29;6.40;;;4.93;;
15831;SDS011;8016;49.928;9.372;2024-02-26T11:25:55;5.00;;;4.50;;
15831;SDS011;8016;49.928;9.372;2024-02-26T11:28:24;9.60;;;5.67;;
15831;SDS011;8016;49.928;9.372;2024-02-26T11:30:51;6.23;;;5.27;;
15831;SDS011;8016;49.928;9.372;2024-02-26T11:33:18;6.23;;;4.43;;
15831;SDS011;8016;49.928;9.372;2024-02-26T11:35:45;5.53;;;4.90;;
15831;SDS011;8016;49.928;9.372;2024-02-26T11:38:17;6.03;;;5.23;;
15831;SDS011;8016;49.928;9.372;2024-02-26T11:40:43;10.03;;;8.07;;
15831;SDS011;8016;49.928;9.372;2024-02-26T11:43:09;6.53;;;4.87;;
15831;SDS011;8016;49.928;9.372;2024-02-26T11:48:10;6.57;;;4.17;;
15831;SDS011;8016;49.928;9.372;2024-02-26T11:50:45;6.13;;;4.63;;
15831;SDS011;8016;49.928;9.372;2024-02-26T11:53:21;5.67;;;4.40;;
15831;SDS011;8016;49.928;9.372;2024-02-26T11:55:48;5.80;;;4.57;;
15831;SDS011;8016;49.928;9.372;2024-02-26T11:58:14;6.10;;;4.00;;
15831;SDS011;8016;49.928;9.372;2024-02-26T12:00:40;5.60;;;4.10;;
15831;SDS011;8016;49.928;9.372;2024-02-26T12:03:06;6.23;;;4.10;;
15831;SDS011;8016;49.928;9.372;2024-02-26T12:05:33;5.27;;;4.13;;
15831;SDS011;8016;49.928;9.372;2024-02-26T12:10:31;4.07;;;3.67;;
15831;SDS011;8016;49.928;9.372;2024-02-26T12:13:13;7.20;;;6.57;;
15831;SDS011;8016;49.928;9.372;2024-02-26T12:15:41;5.10;;;4.30;;
15831;SDS011;8016;49.928;9.372;2024-02-26T12:18:07;4.47;;;3.73;;
15831;SDS011;8016;49.928;9.372;2024-02-26T12:20:35;4.80;;;3.33;;
15831;SDS011;8016;49.928;9.372;2024-02-26T12:23:01;3.80;;;3.10;;
15831;SDS011;8016;49.928;9.372;2024-02-26T12:25:28;3.90;;;3.17;;
15831;SDS011;8016;49.928;9.372;2024-02-26T12:27:54;3.80;;;3.40;;
15831;SDS011;8016;49.928;9.372;2024-02-26T12:30:21;3.97;;;3.40;;
15831;SDS011;8016;49.928;9.372;2024-02-26T12:32:48;3.60;;;3.07;;
15831;SDS011;8016;49.928;9.372;2024-02-26T12:35:14;3.80;;;3.40;;
15831;SDS011;8016;49.928;9.372;2024-02-26T12:37:41;3.83;;;3.43;;
15831;SDS011;8016;49.928;9.372;2024-02-26T12:40:09;3.60;;;3.30;;
15831;SDS011;8016;49.928;9.372;2024-02-26T12:42:36;3.90;;;3.50;;
15831;SDS011;8016;49.928;9.372;2024-02-26T12:45:11;6.93;;;3.50;;
15831;SDS011;8016;49.928;9.372;2024-02-26T12:47:38;3.80;;;3.40;;
15831;SDS011;8016;49.928;9.372;2024-02-26T12:50:05;4.27;;;3.30;;
15831;SDS011;8016;49.928;9.372;2024-02-26T12:52:34;3.63;;;2.73;;
15831;SDS011;8016;49.928;9.372;2024-02-26T12:55:01;5.57;;;3.10;;
15831;SDS011;8016;49.928;9.372;2024-02-26T12:57:34;3.93;;;3.17;;
15831;SDS011;8016;49.928;9.372;2024-02-26T13:00:00;5.83;;;3.40;;
15831;SDS011;8016;49.928;9.372;2024-02-26T13:02:28;3.80;;;2.87;;
15831;SDS011;8016;49.928;9.372;2024-02-26T13:04:54;6.00;;;3.10;;
15831;SDS011;8016;49.928;9.372;2024-02-26T13:07:21;3.30;;;2.53;;
15831;SDS011;8016;49.928;9.372;2024-02-26T13:09:47;4.03;;;2.90;;
15831;SDS011;8016;49.928;9.372;2024-02-26T13:12:13;3.93;;;3.03;;
15831;SDS011;8016;49.928;9.372;2024-02-26T13:14:40;4.90;;;2.97;;
15831;SDS011;8016;49.928;9.372;2024-02-26T13:17:06;5.47;;;3.10;;
15831;SDS011;8016;49.928;9.372;2024-02-26T13:19:32;3.63;;;2.90;;
15831;SDS011;8016;49.928;9.372;2024-02-26T13:22:04;3.73;;;2.93;;
15831;SDS011;8016;49.928;9.372;2024-02-26T13:24:31;4.57;;;3.40;;
15831;SDS011;8016;49.928;9.372;2024-02-26T13:26:57;4.57;;;2.40;;
15831;SDS011;8016;49.928;9.372;2024-02-26T13:29:23;6.73;;;3.70;;
15831;SDS011;8016;49.928;9.372;2024-02-26T13:31:59;5.20;;;3.10;;
15831;SDS011;8016;49.928;9.372;2024-02-26T13:34:26;5.23;;;4.73;;
15831;SDS011;8016;49.928;9.372;2024-02-26T13:36:52;17.20;;;13.07;;
15831;SDS011;8016;49.928;9.372;2024-02-26T13:39:22;3.90;;;3.10;;
15831;SDS011;8016;49.928;9.372;2024-02-26T13:41:49;3.37;;;2.83;;
15831;SDS011;8016;49.928;9.372;2024-02-26T13:44:15;3.87;;;3.00;;
15831;SDS011;8016;49.928;9.372;2024-02-26T13:46:41;3.95;;;2.88;;
15831;SDS011;8016;49.928;9.372;2024-02-26T13:49:08;6.23;;;4.47;;
15831;SDS011;8016;49.928;9.372;2024-02-26T13:51:34;5.77;;;2.97;;
15831;SDS011;8016;49.928;9.372;2024-02-26T13:54:01;2.90;;;2.60;;
15831;SDS011;8016;49.928;9.372;2024-02-26T13:56:27;2.80;;;2.60;;
15831;SDS011;8016;49.928;9.372;2024-02-26T13:58:53;3.90;;;2.80;;
15831;SDS011;8016;49.928;9.372;2024-02-26T14:01:19;4.50;;;2.83;;
15831;SDS011;8016;49.928;9.372;2024-02-26T14:03:45;4.90;;;2.70;;
15831;SDS011;8016;49.928;9.372;2024-02-26T14:06:11;3.07;;;2.77;;
15831;SDS011;8016;49.928;9.372;2024-02-26T14:08:37;3.03;;;2.77;;
15831;SDS011;8016;49.928;9.372;2024-02-26T14:11:03;5.73;;;2.70;;
15831;SDS011;8016;49.928;9.372;2024-02-26T14:13:29;3.40;;;3.00;;
15831;SDS011;8016;49.928;9.372;2024-02-26T14:15:55;3.03;;;2.30;;
15831;SDS011;8016;49.928;9.372;2024-02-26T14:18:21;4.33;;;2.93;;
15831;SDS011;8016;49.928;9.372;2024-02-26T14:20:47;3.57;;;3.27;;
15831;SDS011;8016;49.928;9.372;2024-02-26T14:23:14;4.63;;;2.80;;
15831;SDS011;8016;49.928;9.372;2024-02-26T14:25:40;3.43;;;2.80;;
15831;SDS011;8016;49.928;9.372;2024-02-26T14:28:06;3.17;;;2.80;;
15831;SDS011;8016;49.928;9.372;2024-02-26T14:30:32;3.30;;;2.90;;
15831;SDS011;8016;49.928;9.372;2024-02-26T14:32:58;3.63;;;2.50;;
15831;SDS011;8016;49.928;9.372;2024-02-26T14:35:24;3.33;;;2.50;;
15831;SDS011;8016;49.928;9.372;2024-02-26T14:37:51;6.33;;;3.40;;
15831;SDS011;8016;49.928;9.372;2024-02-26T14:40:17;4.90;;;4.30;;
15831;SDS011;8016;49.928;9.372;2024-02-26T14:42:44;6.40;;;3.80;;
15831;SDS011;8016;49.928;9.372;2024-02-26T14:45:10;4.50;;;3.20;;
15831;SDS011;8016;49.928;9.372;2024-02-26T14:47:36;3.33;;;2.43;;
15831;SDS011;8016;49.928;9.372;2024-02-26T14:50:02;4.27;;;3.00;;
15831;SDS011;8016;49.928;9.372;2024-02-26T14:52:28;7.10;;;5.33;;
15831;SDS011;8016;49.928;9.372;2024-02-26T14:54:55;11.37;;;8.27;;
15831;SDS011;8016;49.928;9.372;2024-02-26T14:57:23;29.33;;;19.37;;
15831;SDS011;8016;49.928;9.372;2024-02-26T14:59:50;31.63;;;21.67;;